Flight Track Log - Related Links

Times and Time Zones

All times are in EDT time to prevent confusion due to time zone crossing. See the EGF4247 flight status page for this flight to view local times or setup timezone preferences in your user account.

Time Position Orientation Groundspeed Altitude Reporting Facility
EDT Latitude Longitude Course Direction KTS MPH feet Rate Location/Type
Fri 05:56:47 PM 42.9167 -78.7500 270° West 154 177 1,900  Level Buffalo TRACON
Fri 05:57:23 PM 42.9000 -78.7667 216° Southwest 172 198 3,700 2,250 Climbing Buffalo TRACON
Fri 05:58:00 PM 42.9500 -78.9369 270° West  Level FlightAware Approximate
Fri 05:58:23 PM 42.9167 -78.8333 289° West 222 255 5,500  Level Buffalo TRACON
Fri 05:59:00 PM 42.9500 -79.0482 270° West  Level FlightAware Approximate
Fri 05:59:23 PM 42.9167 -78.9167 270° West 220 253 8,100  Level Buffalo TRACON
Fri 06:00:00 PM 42.9577 -79.1590 277° West  Level FlightAware Approximate
Fri 06:00:23 PM 42.9167 -79.0000 270° West 221 254 10,300  Level Buffalo TRACON
Fri 06:01:00 PM 42.9667 -79.2698 270° West  Level FlightAware Approximate
Fri 06:01:23 PM 42.9333 -79.0833 285° West 248 285 11,500  Level Buffalo TRACON
Fri 06:02:00 PM 42.9667 -79.3812 270° West  Level FlightAware Approximate
Fri 06:02:23 PM 42.9333 -79.2000 270° West 311 358 12,400  Level Buffalo TRACON
Fri 06:03:16 PM 42.9333 -79.3000 270° West 300 345 13,800 1,487 Climbing Toronto Center
Fri 06:04:16 PM 42.9333 -79.4000 270° West 310 357 15,200 1,500 Climbing Toronto Center
Fri 06:05:16 PM 42.9500 -79.5167 281° West 300 345 16,800 1,850 Climbing Toronto Center
Fri 06:06:16 PM 42.9500 -79.6333 270° West 300 345 18,900 1,700 Climbing Toronto Center
Fri 06:07:16 PM 42.9667 -79.7500 281° West 300 345 20,200 1,300 Climbing Toronto Center
Fri 06:08:16 PM 42.9667 -79.8667 270° West 300 345 21,500 1,450 Climbing Toronto Center
Fri 06:09:16 PM 42.9667 -79.9667 270° West 300 345 23,100 1,600 Climbing Toronto Center
Fri 06:10:16 PM 42.9833 -80.0833 281° West 300 345 24,700 1,450 Climbing Toronto Center
Fri 06:11:16 PM 42.9833 -80.2000 270° West 290 334 26,000 650 Climbing Toronto Center
Fri 06:12:16 PM 43.0000 -80.3167 281° West 300 345 26,000  Level Toronto Center
Fri 06:13:16 PM 43.0000 -80.4333 270° West 330 380 26,000  Level Toronto Center
Fri 06:14:16 PM 43.0000 -80.5667 270° West 340 391 26,000  Level Toronto Center
Fri 06:15:16 PM 43.0167 -80.7000 280° West 340 391 26,000  Level Toronto Center
Fri 06:16:16 PM 43.0000 -80.8167 259° West 340 391 26,000  Level Toronto Center
Fri 06:17:16 PM 43.0167 -80.9500 280° West 340 391 26,000  Level Toronto Center
Fri 06:18:16 PM 43.0167 -81.0667 270° West 330 380 26,000  Level Toronto Center
Fri 06:19:16 PM 43.0167 -81.2000 270° West 320 368 26,000  Level Toronto Center
Fri 06:20:16 PM 43.0167 -81.3167 270° West 310 357 26,000  Level Toronto Center
Fri 06:21:16 PM 43.0167 -81.4333 270° West 310 357 26,000  Level Toronto Center
Fri 06:22:16 PM 43.0167 -81.5667 270° West 320 368 26,000  Level Toronto Center
Fri 06:23:16 PM 43.0167 -81.6833 270° West 320 368 26,000  Level Toronto Center
Fri 06:24:16 PM 43.0167 -81.8167 270° West 330 380 26,000  Level Toronto Center
Fri 06:25:16 PM 43.0000 -81.9333 259° West 340 391 26,000  Level Toronto Center
Fri 06:26:16 PM 43.0000 -82.0667 270° West 340 391 26,000  Level Toronto Center
Fri 06:27:16 PM 43.0000 -82.1833 270° West 330 380 26,000  Level Toronto Center
Fri 06:28:16 PM 43.0000 -82.3167 270° West 330 380 26,000  Level Toronto Center
Fri 06:29:16 PM 43.0000 -82.4333 270° West 330 380 26,000  Level Toronto Center
Fri 06:30:16 PM 43.0000 -82.5667 270° West 340 391 26,000  Level Toronto Center
Fri 06:31:21 PM 42.9989 -82.7264 270° West 339 390 26,000  Level Cleveland Center
Fri 06:32:21 PM 42.9964 -82.8597 269° West 346 398 26,000  Level Cleveland Center
Fri 06:33:21 PM 42.9914 -82.9931 267° West 346 398 26,000  Level Cleveland Center
Fri 06:34:21 PM 42.9844 -83.1319 266° West 351 404 26,000  Level Cleveland Center
Fri 06:35:21 PM 42.9731 -83.2647 263° West 351 404 26,000  Level Cleveland Center
Fri 06:36:21 PM 42.9633 -83.4061 265° West 364 419 26,000  Level Cleveland Center
Fri 06:37:21 PM 42.9536 -83.5419 264° West 369 425 26,000  Level Cleveland Center
Fri 06:38:21 PM 42.9417 -83.6861 264° West 369 425 26,000  Level Cleveland Center
Fri 06:39:21 PM 42.9294 -83.8272 263° West 374 430 26,000  Level Cleveland Center
Fri 06:40:21 PM 42.9192 -83.9656 264° West 374 430 26,000  Level Cleveland Center
Fri 06:41:21 PM 42.9064 -84.1094 263° West 374 430 26,000  Level Cleveland Center
Fri 06:42:21 PM 42.8958 -84.2508 264° West 379 436 26,000  Level Cleveland Center
Fri 06:44:06 PM 42.8775 -84.4856 264° West 387 445 26,000  Level Chicago Center
Fri 06:45:08 PM 42.8653 -84.6311 264° West 389 448 26,000  Level Chicago Center
Fri 06:46:10 PM 42.8522 -84.7764 263° West 388 447 26,000  Level Chicago Center
Fri 06:47:12 PM 42.8381 -84.9475 264° West 381 438 26,000  Level Chicago Center
Fri 06:48:14 PM 42.8242 -85.0925 263° West 384 442 26,000  Level Chicago Center
Fri 06:49:16 PM 42.8108 -85.2392 263° West 390 449 26,000  Level Chicago Center
Fri 06:50:18 PM 42.7964 -85.3881 263° West 395 455 26,000  Level Chicago Center
Fri 06:51:19 PM 42.7811 -85.5364 262° West 398 458 26,000 -244 Level Chicago Center
Fri 06:52:21 PM 42.7547 -85.6806 256° West 392 451 25,500 -1,016 Descending Chicago Center
Fri 06:53:23 PM 42.7283 -85.8192 256° West 381 438 23,900 -1,500 Descending Chicago Center
Fri 06:54:25 PM 42.7039 -85.9544 256° West 369 425 22,400 -1,645 Descending Chicago Center
Fri 06:55:27 PM 42.6747 -86.1156 256° West 365 420 20,500 -1,161 Descending Chicago Center
Fri 06:56:29 PM 42.6508 -86.2458 256° West 359 413 20,000 -1,073 Descending Chicago Center
Fri 06:57:30 PM 42.6264 -86.3703 255° West 344 396 18,300 -1,805 Descending Chicago Center
Fri 06:58:32 PM 42.6039 -86.4942 256° West 338 389 16,300 -1,839 Descending Chicago Center
Fri 06:59:34 PM 42.5814 -86.6153 256° West 333 383 14,500 -1,500 Descending Chicago Center
Fri 07:00:36 PM 42.5606 -86.7308 256° West 318 366 13,200 -1,161 Descending Chicago Center
Fri 07:01:38 PM 42.5317 -86.8311 249° West 290 334 12,100 -1,210 Descending Chicago Center
Fri 07:02:40 PM 42.4992 -86.9542 250° West 290 334 10,700 -1,024 Descending Chicago Center
Fri 07:03:41 PM 42.4706 -87.0539 249° West 284 327 10,000 -341 Descending Chicago Center
Fri 07:04:43 PM 42.4431 -87.1528 249° West 283 326 10,000 -339 Level Chicago Center
Fri 07:05:45 PM 42.4200 -87.2369 250° West 241 277 9,300 -484 Descending Chicago Center
Fri 07:06:47 PM 42.3486 -87.2511 188° South 268 308 9,000 -145 Descending Chicago Center
Fri 07:07:49 PM 42.2661 -87.2506 180° South 272 313 9,000 -390 Level Chicago Center
Fri 07:08:50 PM 42.1908 -87.2506 180° South 270 311 8,200 -683 Descending Chicago Center
Fri 07:09:52 PM 42.1233 -87.2525 181° South 247 284 7,600 -581 Descending Chicago Center
Fri 07:10:54 PM 42.0586 -87.2158 157° South 261 300 7,000 -290 Descending Chicago Center
Fri 07:11:56 PM 41.9969 -87.2069 174° South 245 282 7,000  Level Chicago Center
Fri 07:12:58 PM 41.9808 -87.2944 256° West 209 241 7,000  Level Chicago Center
Fri 07:13:59 PM 41.9836 -87.3717 273° West 210 242 7,000  Level Chicago Center
Fri 07:14:17 PM 41.9833 -87.4000 269° West 195 224 7,000  Level Chicago TRACON
Fri 07:15:17 PM 41.9833 -87.4500 270° West 174 200 7,000 -333 Level Chicago TRACON
Fri 07:16:23 PM 41.9833 -87.5333 270° West 178 205 6,300 -857 Descending Chicago TRACON
Fri 07:17:23 PM 41.9833 -87.6000 270° West 168 193 5,200 -1,100 Descending Chicago TRACON

Login

Don't have an account? Register now (free) for customized features, flight alerts, and more!